Time;durP1;ratioP1;P1;durP2;ratioP2;P2;SDS_P1;SDS_P2;PMS_P1;PMS_P2;Temp;Humidity;BMP_temperature;BMP_pressure;BME280_temperature;BME280_humidity;BME280_pressure;Samples;Min_cycle;Max_cycle;Signal;HPM_P1;HPM_P2
2021/09/11 00:03:50;;;;;;;10.47;9.67;;;21.70;38.00;;;;;;10323987;28;20602;-80
2021/09/11 00:08:53;;;;;;;10.37;9.57;;;21.70;38.90;;;;;;10320199;28;20242;-81
2021/09/11 00:13:57;;;;;;;10.40;9.60;;;21.80;38.10;;;;;;10318815;28;20706;-80
2021/09/11 00:19:02;;;;;;;10.60;9.70;;;21.80;38.10;;;;;;10322909;28;20724;-80
2021/09/11 00:24:06;;;;;;;9.47;8.77;;;21.80;38.20;;;;;;10317060;28;20223;-80
2021/09/11 00:29:10;;;;;;;9.17;8.30;;;21.80;38.10;;;;;;10318731;28;21212;-80
2021/09/11 00:34:15;;;;;;;8.87;8.27;;;21.90;38.20;;;;;;10317756;28;20598;-80
2021/09/11 00:39:19;;;;;;;8.80;7.90;;;21.80;38.10;;;;;;10313738;28;20235;-80
2021/09/11 00:44:23;;;;;;;10.33;9.53;;;21.80;38.10;;;;;;10313910;28;20810;-80
2021/09/11 00:49:27;;;;;;;10.50;9.60;;;21.80;38.10;;;;;;10313870;28;20243;-80
2021/09/11 00:54:40;;;;;;;10.47;9.53;;;21.80;38.20;;;;;;10314340;28;20632;-80
2021/09/11 00:59:44;;;;;;;10.93;9.53;;;21.70;38.00;;;;;;10318234;28;20241;-80
2021/09/11 01:04:48;;;;;;;10.60;9.70;;;21.70;38.00;;;;;;10323680;28;20232;-80
2021/09/11 01:09:52;;;;;;;10.93;9.90;;;21.60;38.50;;;;;;10315196;28;20223;-79
2021/09/11 01:14:55;;;;;;;10.87;9.90;;;21.60;38.30;;;;;;10323555;28;20729;-80
2021/09/11 01:20:01;;;;;;;10.57;9.67;;;21.50;38.10;;;;;;10319169;28;20234;-80
2021/09/11 01:25:08;;;;;;;10.30;9.33;;;21.40;38.70;;;;;;10316317;28;20265;-79
2021/09/11 01:30:14;;;;;;;11.13;10.23;;;21.40;39.30;;;;;;10316880;28;20301;-80
2021/09/11 01:35:18;;;;;;;10.60;9.60;;;21.30;39.00;;;;;;10309578;28;20255;-80
2021/09/11 01:40:23;;;;;;;11.37;10.37;;;21.40;39.00;;;;;;10307824;28;20326;-80
2021/09/11 01:45:26;;;;;;;10.83;9.93;;;21.40;39.30;;;;;;10315027;28;20235;-80
2021/09/11 01:50:30;;;;;;;11.10;10.20;;;21.40;39.10;;;;;;10317862;28;20598;-80
2021/09/11 01:55:34;;;;;;;10.70;9.80;;;21.40;39.10;;;;;;10319556;28;20242;-80
2021/09/11 02:00:39;;;;;;;10.20;9.30;;;21.40;39.40;;;;;;10313614;28;20238;-79
2021/09/11 02:05:46;;;;;;;11.07;10.07;;;21.40;39.10;;;;;;10316210;28;20237;-80
2021/09/11 02:10:51;;;;;;;9.60;8.80;;;21.40;39.30;;;;;;10316617;28;20281;-80
2021/09/11 02:15:59;;;;;;;9.90;8.87;;;21.40;39.80;;;;;;10309713;28;20222;-80
2021/09/11 02:21:02;;;;;;;10.20;9.40;;;21.40;39.40;;;;;;10310643;28;20258;-79
2021/09/11 02:26:08;;;;;;;9.23;8.53;;;21.40;39.60;;;;;;10314590;28;20792;-80
2021/09/11 02:31:11;;;;;;;10.23;9.43;;;21.40;40.00;;;;;;10317444;28;20703;-80
2021/09/11 02:36:15;;;;;;;9.27;8.57;;;21.50;39.80;;;;;;10309588;28;20266;-79
2021/09/11 02:41:20;;;;;;;10.70;9.80;;;21.40;39.80;;;;;;10314947;28;20237;-80
2021/09/11 02:46:23;;;;;;;10.43;9.60;;;21.40;40.40;;;;;;10326720;28;20231;-80
2021/09/11 02:51:27;;;;;;;11.30;10.13;;;21.40;40.10;;;;;;10327416;28;20233;-80
2021/09/11 02:56:32;;;;;;;10.90;9.90;;;21.30;40.20;;;;;;10318037;28;20234;-80
2021/09/11 03:01:37;;;;;;;10.07;9.27;;;21.30;40.90;;;;;;10318597;28;20239;-80
2021/09/11 03:06:41;;;;;;;9.97;9.07;;;21.20;40.50;;;;;;10315488;28;20606;-80
2021/09/11 03:11:46;;;;;;;11.87;10.87;;;21.30;40.60;;;;;;10320003;28;20230;-80
2021/09/11 03:16:50;;;;;;;10.40;9.60;;;21.20;41.30;;;;;;10318710;28;20239;-80
2021/09/11 03:21:54;;;;;;;10.60;9.60;;;21.20;40.90;;;;;;10323293;28;20615;-80
2021/09/11 03:26:58;;;;;;;10.60;9.70;;;21.20;40.90;;;;;;10318032;28;20238;-81
2021/09/11 03:32:02;;;;;;;10.37;9.47;;;21.10;41.40;;;;;;10317566;28;20697;-79
2021/09/11 03:37:05;;;;;;;11.10;10.10;;;21.10;40.90;;;;;;10322075;28;20233;-80
2021/09/11 03:42:10;;;;;;;10.37;9.57;;;21.10;41.20;;;;;;10314322;28;20227;-80
2021/09/11 03:47:13;;;;;;;10.43;9.53;;;21.10;41.60;;;;;;10321661;28;20226;-81
2021/09/11 03:52:17;;;;;;;10.40;9.50;;;21.20;41.40;;;;;;10323290;28;20234;-80
2021/09/11 03:57:21;;;;;;;10.97;10.07;;;21.20;41.40;;;;;;10312397;28;20227;-80
2021/09/11 04:02:26;;;;;;;10.47;9.67;;;21.30;41.90;;;;;;10325826;28;20237;-81
2021/09/11 04:07:29;;;;;;;11.20;10.30;;;21.30;41.80;;;;;;10312601;28;20223;-81
2021/09/11 04:12:36;;;;;;;11.47;10.53;;;21.30;41.60;;;;;;10315896;28;20234;-80
2021/09/11 04:17:41;;;;;;;11.87;10.90;;;21.30;42.60;;;;;;10311403;28;20230;-80
2021/09/11 04:22:44;;;;;;;11.53;10.53;;;21.40;42.10;;;;;;10318710;28;20231;-81
2021/09/11 04:27:50;;;;;;;11.50;10.50;;;21.40;41.80;;;;;;10300817;28;20246;-80
2021/09/11 04:33:01;;;;;;;9.70;8.83;;;21.40;42.10;;;;;;10316966;28;20710;-80
2021/09/11 04:38:04;;;;;;;12.10;9.20;;;21.40;41.70;;;;;;10304424;28;20307;-80
2021/09/11 04:43:09;;;;;;;10.70;9.90;;;21.50;41.70;;;;;;10319328;28;20235;-80
2021/09/11 04:48:13;;;;;;;10.73;9.83;;;21.50;42.20;;;;;;10321228;28;20231;-81
2021/09/11 04:53:16;;;;;;;10.90;10.00;;;21.60;41.90;;;;;;10319213;28;20305;-80
2021/09/11 04:58:21;;;;;;;10.50;9.60;;;21.60;41.80;;;;;;10317885;28;20255;-80
2021/09/11 05:03:25;;;;;;;11.40;10.40;;;21.60;42.20;;;;;;10297634;28;20234;-80
2021/09/11 05:08:28;;;;;;;11.63;10.63;;;21.50;41.80;;;;;;10314373;28;20765;-80
2021/09/11 05:13:33;;;;;;;11.50;10.57;;;21.50;42.00;;;;;;10317528;28;20231;-80
2021/09/11 05:18:37;;;;;;;13.53;12.13;;;21.50;42.40;;;;;;10314010;28;20591;-81
2021/09/11 05:23:41;;;;;;;12.93;11.73;;;21.50;43.10;;;;;;10312237;28;20230;-80
2021/09/11 05:28:46;;;;;;;11.50;10.60;;;21.50;42.50;;;;;;10306279;28;20732;-74
2021/09/11 05:33:50;;;;;;;12.60;11.40;;;21.60;42.70;;;;;;10403675;23;20224;-74
2021/09/11 05:39:00;;;;;;;11.40;10.50;;;21.60;42.30;;;;;;10354770;28;20232;-74
2021/09/11 05:44:05;;;;;;;12.10;11.00;;;21.60;43.20;;;;;;10334786;28;20354;-75
2021/09/11 05:49:11;;;;;;;13.47;12.37;;;21.70;42.60;;;;;;10320242;28;20716;-75
2021/09/11 05:54:16;;;;;;;11.70;10.80;;;21.70;42.50;;;;;;10322856;28;20416;-73
2021/09/11 05:59:24;;;;;;;11.23;10.13;;;21.70;42.40;;;;;;10316058;28;20230;-75
2021/09/11 06:04:28;;;;;;;11.33;10.43;;;21.50;43.10;;;;;;10333895;28;20241;-74
2021/09/11 06:09:31;;;;;;;10.30;9.50;;;21.80;42.40;;;;;;10323318;28;20229;-74
2021/09/11 06:14:36;;;;;;;10.40;9.60;;;21.80;42.50;;;;;;10330131;28;20616;-75
2021/09/11 06:19:39;;;;;;;9.50;8.60;;;21.80;42.80;;;;;;10317250;28;20669;-74
2021/09/11 06:24:43;;;;;;;8.97;8.17;;;21.80;42.40;;;;;;10323462;28;20238;-74
2021/09/11 06:29:48;;;;;;;9.67;8.87;;;21.80;42.30;;;;;;10323735;28;20239;-75
2021/09/11 06:34:51;;;;;;;9.33;8.63;;;21.80;42.40;;;;;;10321096;28;20320;-75
2021/09/11 06:39:56;;;;;;;10.23;9.23;;;21.80;42.30;;;;;;10335113;28;20311;-75
2021/09/11 06:45:01;;;;;;;9.47;8.67;;;21.90;42.60;;;;;;10333725;28;20237;-75
2021/09/11 06:50:15;;;;;;;9.43;8.73;;;21.90;42.70;;;;;;10316444;28;20236;-75
2021/09/11 06:55:26;;;;;;;9.10;8.37;;;21.90;42.50;;;;;;10323125;28;20575;-75
2021/09/11 07:00:34;;;;;;;10.00;9.20;;;22.00;42.60;;;;;;10306332;28;20258;-74
2021/09/11 07:05:39;;;;;;;10.50;9.60;;;22.00;42.80;;;;;;10323106;28;20853;-74
2021/09/11 07:10:44;;;;;;;11.67;10.70;;;22.00;42.40;;;;;;10322934;28;20259;-75
2021/09/11 07:15:49;;;;;;;11.23;10.23;;;22.00;42.70;;;;;;10323536;28;20566;-74
2021/09/11 07:20:52;;;;;;;10.87;9.93;;;22.10;43.10;;;;;;10331465;28;20361;-75
2021/09/11 07:25:55;;;;;;;10.90;10.10;;;22.10;42.90;;;;;;10324289;28;20814;-74
2021/09/11 07:31:00;;;;;;;11.17;10.27;;;22.10;42.80;;;;;;10322493;28;20234;-78
2021/09/11 07:36:07;;;;;;;11.97;11.07;;;22.20;43.00;;;;;;10328173;28;20729;-73
2021/09/11 07:41:10;;;;;;;26.90;24.43;;;22.20;42.70;;;;;;10324207;28;20710;-79
2021/09/11 07:46:15;;;;;;;141.33;127.90;;;22.20;42.40;;;;;;10325081;28;20238;-80
2021/09/11 07:51:19;;;;;;;1202.50;290.70;;;22.20;42.50;;;;;;10317373;28;20250;-78
2021/09/11 07:56:23;;;;;;;82.27;34.50;;;22.30;42.60;;;;;;10332315;28;20253;-80
2021/09/11 08:01:36;;;;;;;24.50;15.43;;;22.30;42.20;;;;;;10320586;28;20227;-77
2021/09/11 08:06:40;;;;;;;162.40;149.73;;;22.40;42.30;;;;;;10326660;28;20245;-73
2021/09/11 08:11:43;;;;;;;10.77;9.87;;;22.40;42.30;;;;;;10325338;28;20583;-73
2021/09/11 08:16:47;;;;;;;34.43;32.13;;;22.50;42.40;;;;;;10331748;28;20237;-73
2021/09/11 08:21:52;;;;;;;8.10;7.40;;;22.50;42.50;;;;;;10308582;28;20227;-74
2021/09/11 08:26:56;;;;;;;7.27;6.67;;;22.70;42.10;;;;;;10307245;28;20237;-75
2021/09/11 08:32:04;;;;;;;13.77;12.43;;;22.80;42.20;;;;;;10313596;28;20211;-75
2021/09/11 08:37:10;;;;;;;10.70;9.70;;;23.00;42.10;;;;;;10317386;28;20596;-75
2021/09/11 08:42:17;;;;;;;8.23;7.53;;;23.10;41.70;;;;;;10312668;28;20233;-73
2021/09/11 08:47:27;;;;;;;7.70;7.10;;;23.20;42.30;;;;;;10314196;28;20219;-74
2021/09/11 08:52:34;;;;;;;8.27;7.57;;;23.30;41.40;;;;;;10329789;28;20231;-72
2021/09/11 08:57:38;;;;;;;7.20;6.70;;;23.40;41.80;;;;;;10329888;28;20435;-71
2021/09/11 09:02:42;;;;;;;9.60;8.70;;;23.40;41.50;;;;;;10322719;28;20235;-71
2021/09/11 09:07:48;;;;;;;6.83;6.33;;;23.50;41.60;;;;;;10322870;28;20317;-71
2021/09/11 09:12:51;;;;;;;7.60;7.00;;;23.60;41.20;;;;;;10328326;28;20254;-71
2021/09/11 09:17:56;;;;;;;7.20;6.70;;;23.60;40.90;;;;;;10326069;28;20233;-72
2021/09/11 09:23:17;;;;;;;7.20;6.60;;;23.70;40.50;;;;;;10329444;28;20218;-71
2021/09/11 09:28:20;;;;;;;6.83;6.33;;;23.70;40.10;;;;;;10318352;28;20226;-75
2021/09/11 09:33:30;;;;;;;7.70;7.10;;;23.80;41.00;;;;;;10322501;28;20258;-75
2021/09/11 09:38:33;;;;;;;7.80;7.30;;;23.90;40.70;;;;;;10317383;28;20724;-84
2021/09/11 09:43:43;;;;;;;6.63;6.13;;;23.90;40.40;;;;;;10321294;28;20227;-73
2021/09/11 09:48:49;;;;;;;6.40;5.90;;;24.00;40.00;;;;;;10320168;28;20230;-76
2021/09/11 09:53:52;;;;;;;6.60;6.10;;;24.10;40.10;;;;;;10323287;28;20250;-75
2021/09/11 09:58:56;;;;;;;6.97;6.47;;;24.10;40.10;;;;;;10324565;28;20226;-75
2021/09/11 10:04:13;;;;;;;36.27;25.67;;;24.10;40.10;;;;;;10321011;28;20227;-75
2021/09/11 10:09:21;;;;;;;662.07;594.10;;;24.20;40.20;;;;;;10316035;28;20233;-75
2021/09/11 10:14:33;;;;;;;90.20;64.13;;;24.30;40.30;;;;;;10313993;28;20239;-74
2021/09/11 10:19:42;;;;;;;28.80;25.80;;;24.50;40.30;;;;;;10312388;28;20230;-75
2021/09/11 10:24:49;;;;;;;15.67;14.27;;;24.50;39.70;;;;;;10322101;28;20867;-75
2021/09/11 10:30:06;;;;;;;9.43;8.67;;;24.60;39.90;;;;;;10318355;28;20269;-75
2021/09/11 10:35:13;;;;;;;7.37;6.83;;;24.70;39.60;;;;;;10314496;28;20250;-75
2021/09/11 10:40:32;;;;;;;6.27;5.67;;;24.80;39.30;;;;;;10316463;28;20237;-75
2021/09/11 10:45:40;;;;;;;5.07;4.67;;;24.90;39.50;;;;;;10278015;28;20224;-75
2021/09/11 10:50:50;;;;;;;5.73;5.33;;;24.90;38.80;;;;;;10276502;28;20249;-75
2021/09/11 10:55:55;;;;;;;5.00;4.70;;;25.00;38.60;;;;;;10281496;28;20232;-80
2021/09/11 11:00:59;;;;;;;5.17;4.77;;;25.00;38.90;;;;;;10270433;28;20318;-80
2021/09/11 11:06:06;;;;;;;4.63;4.33;;;25.10;39.00;;;;;;10285512;28;20238;-78
2021/09/11 11:11:18;;;;;;;5.10;4.70;;;25.20;38.80;;;;;;10278658;28;20225;-80
2021/09/11 11:16:21;;;;;;;8.33;7.53;;;25.20;37.60;;;;;;10278976;28;20228;-83
2021/09/11 11:21:27;;;;;;;6.40;5.80;;;25.30;38.60;;;;;;10287536;28;20262;-80
2021/09/11 11:26:32;;;;;;;8.57;6.77;;;25.40;38.10;;;;;;10280712;28;20318;-80
2021/09/11 11:31:42;;;;;;;6.33;5.73;;;25.50;38.50;;;;;;10273118;28;20327;-75
2021/09/11 11:36:52;;;;;;;6.10;5.50;;;25.60;37.30;;;;;;10279278;28;20231;-74
2021/09/11 11:41:59;;;;;;;4.67;4.37;;;25.70;37.30;;;;;;10271906;28;20573;-72
2021/09/11 11:47:06;;;;;;;5.10;4.80;;;25.80;37.40;;;;;;10277520;28;20231;-76
2021/09/11 11:52:14;;;;;;;4.17;3.87;;;25.70;37.00;;;;;;10268728;28;20240;-75
2021/09/11 11:57:19;;;;;;;4.53;4.20;;;25.70;36.40;;;;;;10275777;28;20231;-75
2021/09/11 12:02:24;;;;;;;4.47;4.13;;;25.70;36.70;;;;;;10279493;28;21146;-75
2021/09/11 12:07:33;;;;;;;5.43;5.13;;;25.70;36.80;;;;;;10280760;28;20274;-75
2021/09/11 12:12:48;;;;;;;6.60;6.10;;;25.70;36.70;;;;;;10282403;28;20258;-71
2021/09/11 12:18:00;;;;;;;5.20;4.90;;;25.70;37.90;;;;;;10292086;28;20219;-74
2021/09/11 12:23:19;;;;;;;8.67;7.50;;;25.70;36.70;;;;;;10283077;28;20227;-74
2021/09/11 12:28:40;;;;;;;7.57;6.87;;;25.80;36.60;;;;;;10285732;28;20252;-74
2021/09/11 12:33:48;;;;;;;5.63;5.00;;;25.90;37.00;;;;;;10285789;28;20237;-74
2021/09/11 12:38:53;;;;;;;5.53;5.13;;;25.90;36.30;;;;;;10289352;28;20219;-74
2021/09/11 12:43:58;;;;;;;8.40;7.83;;;26.00;36.50;;;;;;10287014;28;20224;-74
2021/09/11 12:49:01;;;;;;;5.33;4.93;;;26.00;36.50;;;;;;10284605;28;20234;-74
2021/09/11 12:54:06;;;;;;;4.23;3.93;;;26.10;36.30;;;;;;10280718;28;20228;-74
2021/09/11 12:59:09;;;;;;;4.10;3.80;;;26.10;36.30;;;;;;10282838;28;20223;-74
2021/09/11 13:04:15;;;;;;;3.60;3.40;;;26.00;36.20;;;;;;10287525;28;20608;-74
2021/09/11 13:09:20;;;;;;;3.23;3.03;;;26.00;35.80;;;;;;10281402;28;21174;-74
2021/09/11 13:14:23;;;;;;;3.67;3.37;;;25.90;35.40;;;;;;10283431;28;20606;-74
2021/09/11 13:19:26;;;;;;;4.07;3.77;;;25.90;36.30;;;;;;10290866;28;20350;-73
2021/09/11 13:24:31;;;;;;;4.80;4.30;;;25.90;36.30;;;;;;10281885;28;20801;-74
2021/09/11 13:29:34;;;;;;;4.47;4.17;;;26.00;36.30;;;;;;10275822;28;20582;-73
2021/09/11 13:34:37;;;;;;;4.93;4.33;;;26.00;36.70;;;;;;10284323;28;20730;-72
2021/09/11 13:39:42;;;;;;;4.77;4.47;;;26.00;36.80;;;;;;10278675;28;20242;-73
2021/09/11 13:44:48;;;;;;;3.83;3.53;;;26.10;36.60;;;;;;10277718;28;20232;-73
2021/09/11 13:49:51;;;;;;;4.33;3.93;;;26.10;36.30;;;;;;10280532;28;20287;-73
2021/09/11 13:54:56;;;;;;;4.90;4.50;;;26.10;35.60;;;;;;10287280;28;20241;-73
2021/09/11 13:59:59;;;;;;;4.07;3.77;;;26.00;35.30;;;;;;10282617;28;20256;-73
2021/09/11 14:05:02;;;;;;;4.07;3.77;;;26.00;36.10;;;;;;10281035;28;20234;-74
2021/09/11 14:10:08;;;;;;;5.67;5.27;;;25.90;36.40;;;;;;10286661;28;20227;-74
2021/09/11 14:15:12;;;;;;;3.60;3.40;;;25.90;36.50;;;;;;10281432;28;20698;-74
2021/09/11 14:20:16;;;;;;;4.50;4.20;;;25.90;36.20;;;;;;10280030;28;20242;-71
2021/09/11 14:25:22;;;;;;;4.20;3.90;;;26.00;36.10;;;;;;10281147;28;20226;-72
2021/09/11 14:30:26;;;;;;;3.30;3.10;;;25.90;35.50;;;;;;10279431;28;20595;-73
2021/09/11 14:35:29;;;;;;;3.07;2.87;;;25.80;35.60;;;;;;10281138;28;20254;-76
2021/09/11 14:40:49;;;;;;;2.90;2.70;;;25.70;35.00;;;;;;10278291;28;20237;-77
2021/09/11 14:45:52;;;;;;;4.00;3.60;;;25.60;35.10;;;;;;10284998;28;20799;-73
2021/09/11 14:50:56;;;;;;;380.47;264.53;;;25.50;35.40;;;;;;10285256;28;20227;-80
2021/09/11 14:56:00;;;;;;;49.57;36.70;;;25.50;36.10;;;;;;10281007;28;20911;-80
2021/09/11 15:01:03;;;;;;;43.20;20.23;;;25.50;36.10;;;;;;10280871;28;20234;-79
2021/09/11 15:06:07;;;;;;;59.03;47.67;;;25.50;36.00;;;;;;10282325;28;20251;-79
2021/09/11 15:11:12;;;;;;;12.40;11.30;;;25.60;36.30;;;;;;10290878;28;20720;-79
2021/09/11 15:16:15;;;;;;;129.27;118.63;;;25.50;36.30;;;;;;10279092;28;20254;-79
2021/09/11 15:21:18;;;;;;;10.40;9.60;;;25.40;36.70;;;;;;10285773;28;20232;-79
2021/09/11 15:26:23;;;;;;;6.20;5.77;;;25.40;37.00;;;;;;10287386;28;20733;-79
2021/09/11 15:31:26;;;;;;;9.57;8.87;;;25.50;37.20;;;;;;10286432;28;20600;-79
2021/09/11 15:36:30;;;;;;;6.33;5.87;;;25.60;37.20;;;;;;10288403;28;20247;-79
2021/09/11 15:41:35;;;;;;;5.97;5.47;;;25.60;36.80;;;;;;10288778;28;20231;-79
2021/09/11 15:46:41;;;;;;;7.00;6.40;;;25.60;36.90;;;;;;10289825;28;20810;-79
2021/09/11 15:51:44;;;;;;;5.87;5.37;;;25.50;36.80;;;;;;10283918;28;20227;-78
2021/09/11 15:56:49;;;;;;;6.50;6.00;;;25.40;36.60;;;;;;10286648;28;21016;-78
2021/09/11 16:01:53;;;;;;;6.17;5.77;;;25.30;36.80;;;;;;10322869;23;20227;-75
2021/09/11 16:06:56;;;;;;;5.87;5.47;;;25.20;37.20;;;;;;10327713;28;20723;-78
2021/09/11 16:12:02;;;;;;;5.80;5.40;;;25.20;37.20;;;;;;10308974;28;20232;-78
2021/09/11 16:17:05;;;;;;;8.60;7.90;;;25.20;37.40;;;;;;10281825;28;20332;-78
2021/09/11 16:22:09;;;;;;;6.77;6.27;;;25.20;37.20;;;;;;10288020;28;20239;-78
2021/09/11 16:27:13;;;;;;;6.37;5.87;;;25.30;37.30;;;;;;10288342;28;20223;-79
2021/09/11 16:32:17;;;;;;;5.97;5.57;;;25.30;37.20;;;;;;10279666;28;20240;-78
2021/09/11 16:37:20;;;;;;;6.10;5.70;;;25.40;37.30;;;;;;10278415;28;20748;-78
2021/09/11 16:42:25;;;;;;;5.83;5.43;;;25.40;37.20;;;;;;10285819;28;20246;-77
2021/09/11 16:47:28;;;;;;;5.63;5.23;;;25.50;36.90;;;;;;10286538;28;20235;-78
2021/09/11 16:52:32;;;;;;;5.17;4.87;;;25.50;36.80;;;;;;10289739;28;20609;-77
2021/09/11 16:57:39;;;;;;;5.30;5.00;;;25.60;36.80;;;;;;10279057;28;20741;-78
2021/09/11 17:02:44;;;;;;;5.87;5.37;;;25.60;36.70;;;;;;10287661;28;20261;-77
2021/09/11 17:07:47;;;;;;;5.80;5.40;;;25.60;36.80;;;;;;10282589;28;20223;-79
2021/09/11 17:12:53;;;;;;;5.50;5.10;;;25.50;36.60;;;;;;10279694;28;20631;-73
2021/09/11 17:17:56;;;;;;;5.10;4.70;;;25.50;36.60;;;;;;10278908;28;20234;-74
2021/09/11 17:22:59;;;;;;;5.37;5.07;;;25.50;36.70;;;;;;10280652;28;20234;-73
2021/09/11 17:28:04;;;;;;;5.50;5.10;;;25.50;36.80;;;;;;10281040;28;20240;-74
2021/09/11 17:33:08;;;;;;;5.20;4.80;;;25.40;36.60;;;;;;10284096;28;20348;-74
2021/09/11 17:38:11;;;;;;;5.43;5.13;;;25.40;36.70;;;;;;10282569;28;20254;-74
2021/09/11 17:43:16;;;;;;;5.70;5.30;;;25.30;36.60;;;;;;10277225;28;20223;-75
2021/09/11 17:48:21;;;;;;;5.90;5.40;;;25.30;36.80;;;;;;10281374;28;20754;-73
2021/09/11 17:53:24;;;;;;;5.73;5.27;;;25.20;36.70;;;;;;10274036;28;20760;-74
2021/09/11 17:58:28;;;;;;;5.67;5.27;;;25.10;36.80;;;;;;10278440;28;20253;-73
2021/09/11 18:03:32;;;;;;;5.63;5.17;;;25.00;36.90;;;;;;10284771;28;20234;-80
2021/09/11 18:08:35;;;;;;;6.13;5.63;;;24.90;36.90;;;;;;10278401;28;20730;-80
2021/09/11 18:13:39;;;;;;;6.80;6.20;;;24.80;37.00;;;;;;10277895;28;20236;-73
2021/09/11 18:18:43;;;;;;;5.60;5.20;;;24.70;36.90;;;;;;10288891;28;20223;-80
2021/09/11 18:23:46;;;;;;;5.83;5.40;;;24.50;36.80;;;;;;10284799;28;20235;-80
2021/09/11 18:28:51;;;;;;;5.57;5.17;;;24.30;37.00;;;;;;10286384;28;20231;-80
2021/09/11 18:33:54;;;;;;;5.73;5.30;;;24.20;37.40;;;;;;10286729;28;20621;-80
2021/09/11 18:38:58;;;;;;;5.73;5.33;;;24.10;37.40;;;;;;10287102;28;20230;-81
2021/09/11 18:44:03;;;;;;;6.17;5.77;;;24.10;37.60;;;;;;10286327;28;20223;-77
2021/09/11 18:49:07;;;;;;;6.37;5.87;;;24.00;37.50;;;;;;10284297;28;20232;-80
2021/09/11 18:54:11;;;;;;;6.33;5.93;;;23.90;37.30;;;;;;10286505;28;20612;-80
2021/09/11 18:59:16;;;;;;;6.77;6.17;;;23.70;37.20;;;;;;10284473;28;20227;-80
2021/09/11 19:04:19;;;;;;;6.20;5.80;;;23.60;37.50;;;;;;10289992;28;20239;-80
2021/09/11 19:09:22;;;;;;;6.53;6.03;;;23.50;37.40;;;;;;10266453;28;20737;-80
2021/09/11 19:14:27;;;;;;;7.77;7.17;;;23.50;37.60;;;;;;10276830;28;21705;-80
2021/09/11 19:19:30;;;;;;;6.93;6.43;;;23.30;37.70;;;;;;10265679;28;20827;-80
2021/09/11 19:24:33;;;;;;;7.83;7.13;;;23.20;37.60;;;;;;10272761;28;20266;-74
2021/09/11 19:29:38;;;;;;;7.53;6.93;;;23.10;37.80;;;;;;10270464;28;20239;-74
2021/09/11 19:34:41;;;;;;;7.93;7.30;;;23.00;38.20;;;;;;10276913;28;20254;-74
2021/09/11 19:39:45;;;;;;;7.30;6.80;;;23.00;38.10;;;;;;10275223;28;20926;-74
2021/09/11 19:44:57;;;;;;;7.67;7.07;;;22.90;38.00;;;;;;10275147;28;20247;-74
2021/09/11 19:50:03;;;;;;;8.27;7.57;;;22.90;38.50;;;;;;10270138;28;20227;-75
2021/09/11 19:55:07;;;;;;;9.33;8.63;;;22.90;38.30;;;;;;10275610;28;20236;-75
2021/09/11 20:00:13;;;;;;;9.00;8.20;;;22.80;38.40;;;;;;10273604;28;20231;-74
2021/09/11 20:05:22;;;;;;;9.10;8.30;;;22.70;38.60;;;;;;10272272;28;20231;-74
2021/09/11 20:10:26;;;;;;;9.57;8.77;;;22.50;38.40;;;;;;10279478;28;20865;-74
2021/09/11 20:15:30;;;;;;;8.43;7.70;;;22.40;38.60;;;;;;10268809;28;20235;-74
2021/09/11 20:20:34;;;;;;;9.37;8.57;;;22.40;38.60;;;;;;10272918;28;20226;-74
2021/09/11 20:25:37;;;;;;;9.20;8.40;;;22.30;38.50;;;;;;10277028;28;20237;-74
2021/09/11 20:30:42;;;;;;;9.70;8.80;;;22.30;38.50;;;;;;10273488;28;20234;-74
2021/09/11 20:35:46;;;;;;;8.93;8.23;;;22.10;38.40;;;;;;10281959;28;20648;-74
2021/09/11 20:40:50;;;;;;;14.50;13.23;;;22.00;38.30;;;;;;10279215;28;20235;-74
2021/09/11 20:45:58;;;;;;;12.73;11.63;;;21.90;38.20;;;;;;10277459;28;20821;-74
2021/09/11 20:51:01;;;;;;;10.50;9.60;;;21.80;39.20;;;;;;10277391;28;20860;-74
2021/09/11 20:56:06;;;;;;;9.37;8.57;;;21.70;38.70;;;;;;10276943;28;20257;-74
2021/09/11 21:01:11;;;;;;;9.63;8.83;;;21.60;38.80;;;;;;10276150;28;20316;-74
2021/09/11 21:06:15;;;;;;;9.23;8.53;;;21.60;39.00;;;;;;10277403;28;20260;-74
2021/09/11 21:11:18;;;;;;;9.00;8.30;;;21.60;38.70;;;;;;10275820;28;20223;-74
2021/09/11 21:16:24;;;;;;;10.13;9.23;;;21.50;38.70;;;;;;10278582;28;20279;-74
2021/09/11 21:21:27;;;;;;;11.27;10.27;;;21.50;39.10;;;;;;10276105;28;20271;-74
2021/09/11 21:26:30;;;;;;;10.40;9.40;;;21.40;38.90;;;;;;10274259;28;20227;-74
2021/09/11 21:31:35;;;;;;;9.07;8.30;;;21.20;39.00;;;;;;10274233;28;20714;-74
2021/09/11 21:36:41;;;;;;;9.30;8.50;;;21.10;39.60;;;;;;10279334;28;20314;-74
2021/09/11 21:41:44;;;;;;;8.83;8.13;;;21.10;39.40;;;;;;10273597;28;20231;-74
2021/09/11 21:46:53;;;;;;;9.43;8.73;;;21.10;39.50;;;;;;10280261;28;20246;-74
2021/09/11 21:51:57;;;;;;;8.77;8.17;;;21.10;40.00;;;;;;10275510;28;20231;-74
2021/09/11 21:57:01;;;;;;;10.97;10.07;;;21.10;39.50;;;;;;10276700;28;20642;-74
2021/09/11 22:02:07;;;;;;;9.70;8.90;;;21.00;39.50;;;;;;10280303;28;20234;-74
2021/09/11 22:07:12;;;;;;;9.80;8.93;;;21.00;39.70;;;;;;10274416;28;20370;-74
2021/09/11 22:12:15;;;;;;;9.63;8.83;;;21.00;39.50;;;;;;10277338;28;20729;-74
2021/09/11 22:17:24;;;;;;;8.83;8.13;;;21.00;39.50;;;;;;10256527;28;21707;-74
2021/09/11 22:22:27;;;;;;;8.90;8.20;;;20.90;39.80;;;;;;10284441;28;20228;-74
2021/09/11 22:27:31;;;;;;;9.60;8.80;;;20.80;39.50;;;;;;10281784;28;20239;-74
2021/09/11 22:32:37;;;;;;;9.37;8.60;;;20.80;39.60;;;;;;10277454;28;20231;-77
2021/09/11 22:37:42;;;;;;;8.47;7.67;;;20.80;39.90;;;;;;10277786;28;20226;-79
2021/09/11 22:42:48;;;;;;;8.80;8.10;;;20.70;39.70;;;;;;10278327;28;20227;-79
2021/09/11 22:47:53;;;;;;;9.17;8.47;;;20.70;40.00;;;;;;10265586;28;20227;-80
2021/09/11 22:52:57;;;;;;;9.83;9.13;;;20.70;40.10;;;;;;10270235;28;20257;-73
2021/09/11 22:58:02;;;;;;;8.27;7.57;;;20.60;39.80;;;;;;10268559;28;20230;-76
2021/09/11 23:03:07;;;;;;;9.07;8.40;;;20.60;39.60;;;;;;10280598;28;20231;-73
2021/09/11 23:08:30;;;;;;;9.23;8.53;;;20.50;40.10;;;;;;10287621;28;20227;-73
2021/09/11 23:13:34;;;;;;;10.53;9.73;;;20.30;39.90;;;;;;10285352;28;20776;-77
2021/09/11 23:18:40;;;;;;;9.50;8.80;;;20.40;40.30;;;;;;10286332;28;20636;-74
2021/09/11 23:23:43;;;;;;;8.67;8.07;;;20.30;40.70;;;;;;10354675;23;20338;-77
2021/09/11 23:28:47;;;;;;;9.97;9.07;;;20.30;40.60;;;;;;10331106;28;20231;-74
2021/09/11 23:33:51;;;;;;;8.73;7.93;;;20.20;40.60;;;;;;10356021;23;20244;-69
2021/09/11 23:38:55;;;;;;;8.57;7.97;;;20.20;41.00;;;;;;10332327;28;20234;-70
2021/09/11 23:43:58;;;;;;;8.37;7.67;;;20.20;40.80;;;;;;10298230;28;20730;-69
2021/09/11 23:49:02;;;;;;;9.07;8.37;;;20.10;40.80;;;;;;10300652;28;20235;-69
2021/09/11 23:54:06;;;;;;;9.40;8.70;;;20.10;41.40;;;;;;10291066;28;20235;-70
2021/09/11 23:59:09;;;;;;;8.50;7.80;;;20.10;41.00;;;;;;10302388;28;20261;-69
